Aviation Digital Data Service (ADDS)

Output produced by METARs form (0032 UTC 21 January 2019)
found at http://www.aviationweather.gov/metar/data/
 
METAR text: PKMJ 202355Z 04016KT 15SM FEW015 SCT050 BKN300 30/25 A2978
Conditions at: PKMJ (MAJURO WSO AIRPO, MH, US) observed 2355 UTC 20 January 2019
Temperature: 30.0°C (86°F)
Dewpoint: 25.0°C (77°F) [RH = 75%]
Pressure (altimeter): 29.78 inches Hg (1008.5 mb)
Winds: from the NE (40 degrees) at 18 MPH (16 knots; 8.2 m/s)
Visibility: 15 miles (24 km)
Ceiling: 30000 feet AGL
Clouds: few clouds at 1500 feet AGL
scattered clouds at 5000 feet AGL
broken clouds at 30000 feet AGL
Weather: no significant weather observed at this time

METAR text: PKMJ 202255Z 05015KT 15SM FEW015 SCT050 BKN300 30/25 A2980
Conditions at: PKMJ (MAJURO WSO AIRPO, MH, US) observed 2255 UTC 20 January 2019
Temperature: 30.0°C (86°F)
Dewpoint: 25.0°C (77°F) [RH = 75%]
Pressure (altimeter): 29.80 inches Hg (1009.2 mb)
Winds: from the NE (50 degrees) at 17 MPH (15 knots; 7.7 m/s)
Visibility: 15 miles (24 km)
Ceiling: 30000 feet AGL
Clouds: few clouds at 1500 feet AGL
scattered clouds at 5000 feet AGL
broken clouds at 30000 feet AGL
Weather: no significant weather observed at this time

METAR text: PKMJ 202155Z 06019KT -RA 14SM SCT014TCU BKN050 OVC120 28/25 A2981 RMK TCU ALQDS
Conditions at: PKMJ (MAJURO WSO AIRPO, MH, US) observed 2155 UTC 20 January 2019
Temperature: 28.0°C (82°F)
Dewpoint: 25.0°C (77°F) [RH = 84%]
Pressure (altimeter): 29.81 inches Hg (1009.6 mb)
Winds: from the ENE (60 degrees) at 22 MPH (19 knots; 9.8 m/s)
Visibility: 14 miles (23 km)
Ceiling: 5000 feet AGL
Clouds: scattered clouds at 1400 feet AGL
broken clouds at 5000 feet AGL
overcast cloud deck at 12000 feet AGL
Weather: -RA  (light rain)

METAR text: PKMJ 202058Z 09012KT 12SM -RA SCT014TCU BKN050 OVC120 28/25 A2981 RMK TCU ALQDS
Conditions at: PKMJ (MAJURO WSO AIRPO, MH, US) observed 2058 UTC 20 January 2019
Temperature: 28.0°C (82°F)
Dewpoint: 25.0°C (77°F) [RH = 84%]
Pressure (altimeter): 29.81 inches Hg (1009.6 mb)
Winds: from the E (90 degrees) at 14 MPH (12 knots; 6.2 m/s)
Visibility: 12 miles (19 km)
Ceiling: 5000 feet AGL
Clouds: scattered clouds at 1400 feet AGL
broken clouds at 5000 feet AGL
overcast cloud deck at 12000 feet AGL
Weather: -RA  (light rain)

METAR text: PKMJ 202020Z 06015KT 15SM SCT014TCU BKN050 OVC120 28/25 A2979 RMK TCU ALQDS FIRST
Conditions at: PKMJ (MAJURO WSO AIRPO, MH, US) observed 2020 UTC 20 January 2019
Temperature: 28.0°C (82°F)
Dewpoint: 25.0°C (77°F) [RH = 84%]
Pressure (altimeter): 29.79 inches Hg (1008.9 mb)
Winds: from the ENE (60 degrees) at 17 MPH (15 knots; 7.7 m/s)
Visibility: 15 miles (24 km)
Ceiling: 5000 feet AGL
Clouds: scattered clouds at 1400 feet AGL
broken clouds at 5000 feet AGL
overcast cloud deck at 12000 feet AGL
Weather: no significant weather observed at this time

METAR text: PKMJ 200754Z 05008KT 15SM FEW015 SCT050 BKN120 OVC300 28/25 A2977 RMK LAST
Conditions at: PKMJ (MAJURO WSO AIRPO, MH, US) observed 0754 UTC 20 January 2019
Temperature: 28.0°C (82°F)
Dewpoint: 25.0°C (77°F) [RH = 84%]
Pressure (altimeter): 29.77 inches Hg (1008.2 mb)
Winds: from the NE (50 degrees) at 9 MPH (8 knots; 4.1 m/s)
Visibility: 15 miles (24 km)
Ceiling: 12000 feet AGL
Clouds: few clouds at 1500 feet AGL
scattered clouds at 5000 feet AGL
broken clouds at 12000 feet AGL
overcast cloud deck at 30000 feet AGL
Weather: no significant weather observed at this time

METAR text: PKMJ 200656Z 06011KT 15SM SCT014 BKN050 BKN120 OVC300 28/25 A2976
Conditions at: PKMJ (MAJURO WSO AIRPO, MH, US) observed 0656 UTC 20 January 2019
Temperature: 28.0°C (82°F)
Dewpoint: 25.0°C (77°F) [RH = 84%]
Pressure (altimeter): 29.76 inches Hg (1007.9 mb)
Winds: from the ENE (60 degrees) at 13 MPH (11 knots; 5.7 m/s)
Visibility: 15 miles (24 km)
Ceiling: 5000 feet AGL
Clouds: scattered clouds at 1400 feet AGL
broken clouds at 5000 feet AGL
broken clouds at 12000 feet AGL
overcast cloud deck at 30000 feet AGL
Weather: no significant weather observed at this time

METAR text: PKMJ 200554Z 06010KT 15SM FEW015 SCT050 BKN120 OVC300 29/25 A2973
Conditions at: PKMJ (MAJURO WSO AIRPO, MH, US) observed 0554 UTC 20 January 2019
Temperature: 29.0°C (84°F)
Dewpoint: 25.0°C (77°F) [RH = 79%]
Pressure (altimeter): 29.73 inches Hg (1006.9 mb)
Winds: from the ENE (60 degrees) at 12 MPH (10 knots; 5.1 m/s)
Visibility: 15 miles (24 km)
Ceiling: 12000 feet AGL
Clouds: few clouds at 1500 feet AGL
scattered clouds at 5000 feet AGL
broken clouds at 12000 feet AGL
overcast cloud deck at 30000 feet AGL
Weather: no significant weather observed at this time

METAR text: PKMJ 200457Z 08010KT 15SM FEW015 SCT050 BKN120 OVC300 29/25 A2972
Conditions at: PKMJ (MAJURO WSO AIRPO, MH, US) observed 0457 UTC 20 January 2019
Temperature: 29.0°C (84°F)
Dewpoint: 25.0°C (77°F) [RH = 79%]
Pressure (altimeter): 29.72 inches Hg (1006.5 mb)
Winds: from the E (80 degrees) at 12 MPH (10 knots; 5.1 m/s)
Visibility: 15 miles (24 km)
Ceiling: 12000 feet AGL
Clouds: few clouds at 1500 feet AGL
scattered clouds at 5000 feet AGL
broken clouds at 12000 feet AGL
overcast cloud deck at 30000 feet AGL
Weather: no significant weather observed at this time

METAR text: PKMJ 200356Z 08012KT 15SM FEW015 SCT050 BKN120 OVC300 29/25 A2971
Conditions at: PKMJ (MAJURO WSO AIRPO, MH, US) observed 0356 UTC 20 January 2019
Temperature: 29.0°C (84°F)
Dewpoint: 25.0°C (77°F) [RH = 79%]
Pressure (altimeter): 29.71 inches Hg (1006.2 mb)
Winds: from the E (80 degrees) at 14 MPH (12 knots; 6.2 m/s)
Visibility: 15 miles (24 km)
Ceiling: 12000 feet AGL
Clouds: few clouds at 1500 feet AGL
scattered clouds at 5000 feet AGL
broken clouds at 12000 feet AGL
overcast cloud deck at 30000 feet AGL
Weather: no significant weather observed at this time

METAR text: PKMJ 200311Z 08013KT 15SM FEW015 SCT050 BKN120 OVC300 28/25 A2972 RMK FIRST
Conditions at: PKMJ (MAJURO WSO AIRPO, MH, US) observed 0311 UTC 20 January 2019
Temperature: 28.0°C (82°F)
Dewpoint: 25.0°C (77°F) [RH = 84%]
Pressure (altimeter): 29.72 inches Hg (1006.5 mb)
Winds: from the E (80 degrees) at 15 MPH (13 knots; 6.7 m/s)
Visibility: 15 miles (24 km)
Ceiling: 12000 feet AGL
Clouds: few clouds at 1500 feet AGL
scattered clouds at 5000 feet AGL
broken clouds at 12000 feet AGL
overcast cloud deck at 30000 feet AGL
Weather: no significant weather observed at this time

METAR text: PKMJ 192256Z 09013KT 14SM -RA SCT014 BKN050 OVC120 28/25 A2980 RMK LAST
Conditions at: PKMJ (MAJURO WSO AIRPO, MH, US) observed 2256 UTC 19 January 2019
Temperature: 28.0°C (82°F)
Dewpoint: 25.0°C (77°F) [RH = 84%]
Pressure (altimeter): 29.80 inches Hg (1009.2 mb)
Winds: from the E (90 degrees) at 15 MPH (13 knots; 6.7 m/s)
Visibility: 14 miles (23 km)
Ceiling: 5000 feet AGL
Clouds: scattered clouds at 1400 feet AGL
broken clouds at 5000 feet AGL
overcast cloud deck at 12000 feet AGL
Weather: -RA  (light rain)

METAR text: PKMJ 192154Z 03010KT 15SM FEW015 SCT050 BKN120 OVC300 29/25 A2980
Conditions at: PKMJ (MAJURO WSO AIRPO, MH, US) observed 2154 UTC 19 January 2019
Temperature: 29.0°C (84°F)
Dewpoint: 25.0°C (77°F) [RH = 79%]
Pressure (altimeter): 29.80 inches Hg (1009.2 mb)
Winds: from the NNE (30 degrees) at 12 MPH (10 knots; 5.1 m/s)
Visibility: 15 miles (24 km)
Ceiling: 12000 feet AGL
Clouds: few clouds at 1500 feet AGL
scattered clouds at 5000 feet AGL
broken clouds at 12000 feet AGL
overcast cloud deck at 30000 feet AGL
Weather: no significant weather observed at this time

METAR text: PKMJ 192059Z 03008KT 15SM FEW015 SCT050 BKN120 OVC300 28/25 A2980
Conditions at: PKMJ (MAJURO WSO AIRPO, MH, US) observed 2059 UTC 19 January 2019
Temperature: 28.0°C (82°F)
Dewpoint: 25.0°C (77°F) [RH = 84%]
Pressure (altimeter): 29.80 inches Hg (1009.2 mb)
Winds: from the NNE (30 degrees) at 9 MPH (8 knots; 4.1 m/s)
Visibility: 15 miles (24 km)
Ceiling: 12000 feet AGL
Clouds: few clouds at 1500 feet AGL
scattered clouds at 5000 feet AGL
broken clouds at 12000 feet AGL
overcast cloud deck at 30000 feet AGL
Weather: no significant weather observed at this time

METAR text: PKMJ 192023Z 03010KT 15SM FEW015 SCT050 BKN120 OVC300 28/25 A2978 RMK FIRST
Conditions at: PKMJ (MAJURO WSO AIRPO, MH, US) observed 2023 UTC 19 January 2019
Temperature: 28.0°C (82°F)
Dewpoint: 25.0°C (77°F) [RH = 84%]
Pressure (altimeter): 29.78 inches Hg (1008.5 mb)
Winds: from the NNE (30 degrees) at 12 MPH (10 knots; 5.1 m/s)
Visibility: 15 miles (24 km)
Ceiling: 12000 feet AGL
Clouds: few clouds at 1500 feet AGL
scattered clouds at 5000 feet AGL
broken clouds at 12000 feet AGL
overcast cloud deck at 30000 feet AGL
Weather: no significant weather observed at this time

Forecast for: PKMJ (MAJURO WSO AIRPO, MH, US)
Text: PKMJ 202333Z 2100/2124 08011KT P6SM VCSH FEW015 SCT050 SCT120
Forecast period: 0000 UTC 21 January 2019 to 0000 UTC 22 January 2019
Forecast type: FROM: standard forecast or significant change
Winds: from the E (80 degrees) at 13 MPH (11 knots; 5.7 m/s)
Visibility: 6 or more miles 10+ km)
Ceiling: at least 12,000 feet AGL
Clouds: few clouds at 1500 feet AGL
scattered clouds at 5000 feet AGL
scattered clouds at 12000 feet AGL
Weather: VCSH  (showers in vicinity)